Time;durP1;ratioP1;P1;durP2;ratioP2;P2;SDS_P1;SDS_P2;PMS_P1;PMS_P2;Temp;Humidity;BMP_temperature;BMP_pressure;BME280_temperature;BME280_humidity;BME280_pressure;Samples;Min_cycle;Max_cycle;Signal;HPM_P1;HPM_P2
2022/03/24 00:01:20;;;;;;;;;;;;;;;18.04;48.33;103123.84;6313072;22;19910;-79
2022/03/24 00:03:46;;;;;;;;;;;;;;;18.04;48.26;103125.56;6313212;22;19917;-79
2022/03/24 00:06:12;;;;;;;;;;;;;;;18.04;48.37;103121.22;6312942;22;19910;-75
2022/03/24 00:08:37;;;;;;;;;;;;;;;18.04;48.38;103121.22;6287694;22;19917;-79
2022/03/24 00:11:02;;;;;;;;;;;;;;;18.05;48.38;103119.50;6341549;22;19952;-79
2022/03/24 00:13:27;;;;;;;;;;;;;;;18.05;48.47;103122.09;6340404;22;19910;-80
2022/03/24 00:15:53;;;;;;;;;;;;;;;18.03;48.47;103122.09;6312987;22;19917;-75
2022/03/24 00:18:18;;;;;;;;;;;;;;;18.03;48.37;103121.19;6286848;22;19946;-75
2022/03/24 00:20:43;;;;;;;;;;;;;;;18.03;48.45;103122.09;6312721;22;20331;-75
2022/03/24 00:23:09;;;;;;;;;;;;;;;18.03;48.24;103115.97;6286467;22;19923;-74
2022/03/24 00:25:34;;;;;;;;;;;;;;;18.02;48.49;103116.81;6286717;22;19921;-75
2022/03/24 00:28:00;;;;;;;;;;;;;;;18.03;48.49;103114.28;6340295;22;19914;-75
2022/03/24 00:30:25;;;;;;;;;;;;;;;18.03;48.33;103113.38;6286703;22;19987;-75
2022/03/24 00:32:50;;;;;;;;;;;;;;;18.03;48.30;103122.09;6314529;22;19913;-75
2022/03/24 00:35:16;;;;;;;;;;;;;;;18.01;48.28;103115.09;6291824;22;19914;-75
2022/03/24 00:37:41;;;;;;;;;;;;;;;18.02;48.49;103116.81;6343896;22;19911;-76
2022/03/24 00:40:07;;;;;;;;;;;;;;;18.02;48.40;103114.22;6313782;22;19907;-74
2022/03/24 00:42:35;;;;;;;;;;;;;;;18.01;48.31;103117.69;6340335;22;19927;-75
2022/03/24 00:45:01;;;;;;;;;;;;;;;18.01;48.36;103115.09;6312311;22;19910;-75
2022/03/24 00:47:26;;;;;;;;;;;;;;;18.00;48.36;103114.19;6339945;22;19911;-74
2022/03/24 00:49:52;;;;;;;;;;;;;;;18.00;48.25;103111.56;6339840;22;19918;-75
2022/03/24 00:52:17;;;;;;;;;;;;;;;18.00;48.25;103114.19;6340246;22;19910;-74
2022/03/24 00:54:42;;;;;;;;;;;;;;;18.00;48.22;103108.09;6339782;22;19911;-75
2022/03/24 00:57:08;;;;;;;;;;;;;;;18.00;48.27;103111.56;6340112;22;19906;-75
2022/03/24 00:59:33;;;;;;;;;;;;;;;18.00;48.46;103101.16;6341462;22;19911;-80
2022/03/24 01:01:59;;;;;;;;;;;;;;;17.98;48.26;103105.44;6313661;22;19903;-80
2022/03/24 01:04:24;;;;;;;;;;;;;;;17.98;48.42;103102.84;6314640;22;20331;-81
2022/03/24 01:06:49;;;;;;;;;;;;;;;17.98;48.35;103100.22;6325623;22;19959;-83
2022/03/24 01:09:15;;;;;;;;;;;;;;;17.98;48.33;103102.84;6324228;22;19911;-80
2022/03/24 01:11:40;;;;;;;;;;;;;;;17.98;48.47;103099.34;6323442;22;19907;-80
2022/03/24 01:14:07;;;;;;;;;;;;;;;17.98;48.36;103097.63;6314431;22;20328;-79
2022/03/24 01:16:33;;;;;;;;;;;;;;;17.98;48.39;103096.75;6313172;22;19911;-79
2022/03/24 01:18:58;;;;;;;;;;;;;;;17.96;48.46;103088.88;6312783;22;19987;-79
2022/03/24 01:21:23;;;;;;;;;;;;;;;17.98;48.28;103096.75;6312758;22;19910;-79
2022/03/24 01:23:49;;;;;;;;;;;;;;;17.97;48.31;103090.66;6311733;22;19919;-79
2022/03/24 01:26:15;;;;;;;;;;;;;;;17.97;48.32;103093.28;6311249;22;20315;-79
2022/03/24 01:28:41;;;;;;;;;;;;;;;17.96;48.37;103090.63;6311075;22;19910;-79
2022/03/24 01:31:08;;;;;;;;;;;;;;;17.95;48.48;103087.13;6311237;22;20291;-78
2022/03/24 01:33:34;;;;;;;;;;;;;;;17.95;48.52;103092.34;6338589;22;19910;-79
2022/03/24 01:35:59;;;;;;;;;;;;;;;17.97;48.13;103084.56;6339240;22;20344;-79
2022/03/24 01:38:24;;;;;;;;;;;;;;;17.96;48.45;103088.00;6338884;22;19906;-79
2022/03/24 01:40:50;;;;;;;;;;;;;;;17.96;48.25;103082.81;6310778;22;19989;-79
2022/03/24 01:43:17;;;;;;;;;;;;;;;17.94;48.41;103082.75;6310800;22;19907;-79
2022/03/24 01:45:43;;;;;;;;;;;;;;;17.94;48.47;103077.53;6311423;22;19915;-79
2022/03/24 01:48:08;;;;;;;;;;;;;;;17.94;48.26;103084.50;6310931;22;20342;-79
2022/03/24 01:50:34;;;;;;;;;;;;;;;17.94;48.32;103085.34;6338851;22;19971;-79
2022/03/24 01:52:59;;;;;;;;;;;;;;;17.94;48.40;103077.53;6339844;22;19981;-79
2022/03/24 01:55:24;;;;;;;;;;;;;;;17.94;48.26;103081.88;6312521;22;19911;-78
2022/03/24 01:57:50;;;;;;;;;;;;;;;17.94;48.42;103074.06;6312290;22;19911;-79
2022/03/24 02:00:15;;;;;;;;;;;;;;;17.94;48.70;103074.06;6311978;22;20291;-79
2022/03/24 02:02:44;;;;;;;;;;;;;;;17.93;48.38;103069.72;6312274;22;19907;-78
2022/03/24 02:05:09;;;;;;;;;;;;;;;17.93;48.50;103078.41;6339443;22;19910;-79
2022/03/24 02:07:35;;;;;;;;;;;;;;;17.92;48.42;103068.84;6312190;22;19918;-79
2022/03/24 02:10:01;;;;;;;;;;;;;;;17.92;48.48;103075.75;6312122;22;19918;-79
2022/03/24 02:12:27;;;;;;;;;;;;;;;17.91;48.23;103072.28;6312011;22;20315;-79
2022/03/24 02:14:52;;;;;;;;;;;;;;;17.91;48.31;103069.66;6286241;22;19938;-79
2022/03/24 02:17:19;;;;;;;;;;;;;;;17.91;48.31;103072.28;6312059;22;20388;-79
2022/03/24 02:19:45;;;;;;;;;;;;;;;17.91;48.16;103067.06;6339858;22;20254;-78
2022/03/24 02:22:14;;;;;;;;;;;;;;;17.92;48.35;103065.31;6286403;22;19942;-79
2022/03/24 02:24:40;;;;;;;;;;;;;;;17.91;48.33;103066.19;6228971;22;1920187;-79
2022/03/24 02:27:05;;;;;;;;;;;;;;;17.91;48.43;103060.97;6341483;22;19922;-79
2022/03/24 02:29:31;;;;;;;;;;;;;;;17.91;48.24;103056.63;6313890;22;19907;-79
2022/03/24 02:31:56;;;;;;;;;;;;;;;17.89;48.25;103064.41;6314115;22;19911;-80
2022/03/24 02:34:37;;;;;;;;;;;;;;;17.89;48.12;103058.31;6341403;22;19910;-79
2022/03/24 02:37:13;;;;;;;;;;;;;;;17.90;48.20;103060.09;6341271;22;19956;-79
2022/03/24 02:39:42;;;;;;;;;;;;;;;17.87;48.29;103060.88;6341366;22;19907;-79
2022/03/24 02:42:09;;;;;;;;;;;;;;;17.87;48.28;103060.88;6341364;22;19919;-80
2022/03/24 02:44:35;;;;;;;;;;;;;;;17.87;48.18;103058.28;6341407;22;19950;-79
2022/03/24 02:47:01;;;;;;;;;;;;;;;17.87;48.19;103057.41;6313706;22;19934;-79
2022/03/24 02:49:27;;;;;;;;;;;;;;;17.87;48.09;103054.81;6313511;22;19913;-79
2022/03/24 02:51:54;;;;;;;;;;;;;;;17.88;48.10;103053.97;6313548;22;20293;-81
2022/03/24 02:54:20;;;;;;;;;;;;;;;17.87;48.17;103049.59;6313936;22;19913;-80
2022/03/24 02:56:45;;;;;;;;;;;;;;;17.87;48.16;103052.19;6342951;22;20311;-80
2022/03/24 02:59:12;;;;;;;;;;;;;;;17.86;48.27;103053.06;6341425;22;19914;-80
2022/03/24 03:01:41;;;;;;;;;;;;;;;17.86;48.14;103048.72;6313792;22;19910;-79
2022/03/24 03:04:06;;;;;;;;;;;;;;;17.85;48.16;103052.16;6341525;22;19907;-79
2022/03/24 03:06:33;;;;;;;;;;;;;;;17.86;48.21;103058.25;6341295;22;19913;-80
2022/03/24 03:08:58;;;;;;;;;;;;;;;17.84;48.03;103053.00;6340978;22;19906;-79
2022/03/24 03:11:23;;;;;;;;;;;;;;;17.85;48.14;103056.50;6313953;22;19911;-79
2022/03/24 03:13:49;;;;;;;;;;;;;;;17.85;47.98;103054.75;6313122;22;19934;-79
2022/03/24 03:16:15;;;;;;;;;;;;;;;17.84;48.05;103046.94;6314463;22;19915;-80
2022/03/24 03:18:44;;;;;;;;;;;;;;;17.85;48.23;103046.94;6340852;22;19914;-80
2022/03/24 03:21:09;;;;;;;;;;;;;;;17.84;47.94;103047.81;6314597;22;19989;-79
2022/03/24 03:23:38;;;;;;;;;;;;;;;17.84;47.87;103053.00;6341279;22;20327;-80
2022/03/24 03:26:04;;;;;;;;;;;;;;;17.82;47.99;103046.88;6313099;22;19914;-79
2022/03/24 03:28:30;;;;;;;;;;;;;;;17.81;47.95;103049.41;6341102;22;19911;-80
2022/03/24 03:30:55;;;;;;;;;;;;;;;17.82;48.04;103049.47;6340707;22;20002;-79
2022/03/24 03:33:20;;;;;;;;;;;;;;;17.82;47.86;103052.09;6287942;22;19910;-80
2022/03/24 03:35:45;;;;;;;;;;;;;;;17.82;47.95;103048.59;6289476;22;19996;-80
2022/03/24 03:38:11;;;;;;;;;;;;;;;17.82;47.97;103052.09;6315629;22;19915;-79
2022/03/24 03:40:36;;;;;;;;;;;;;;;17.82;47.96;103054.69;6313731;22;19932;-80
2022/03/24 03:43:02;;;;;;;;;;;;;;;17.82;47.81;103056.44;6341021;22;19907;-80
2022/03/24 03:45:27;;;;;;;;;;;;;;;17.82;47.80;103054.69;6313730;22;19946;-79
2022/03/24 03:47:52;;;;;;;;;;;;;;;17.81;47.85;103052.00;6287813;22;19910;-79
2022/03/24 03:50:18;;;;;;;;;;;;;;;17.81;47.83;103055.53;6341268;22;19910;-80
2022/03/24 03:52:43;;;;;;;;;;;;;;;17.81;47.96;103059.81;6315250;22;20388;-81
2022/03/24 03:55:10;;;;;;;;;;;;;;;17.80;47.96;103053.75;6343525;22;19989;-81
2022/03/24 03:57:35;;;;;;;;;;;;;;;17.81;47.94;103055.53;6319869;22;19918;-80
2022/03/24 04:00:52;;;;;;;;;;;;;;;17.80;47.92;103051.13;6345704;22;19907;-80
2022/03/24 04:02:46;;;;;;;;;;;;;;;17.80;47.97;103053.75;6346952;22;20375;-80
2022/03/24 04:05:11;;;;;;;;;;;;;;;17.79;47.83;103040.66;6322148;22;19936;-80
2022/03/24 04:07:36;;;;;;;;;;;;;;;17.78;47.75;103045.00;6345597;22;20323;-80
2022/03/24 04:10:02;;;;;;;;;;;;;;;17.78;47.90;103047.59;6317795;22;20319;-80
2022/03/24 04:12:27;;;;;;;;;;;;;;;17.78;48.02;103050.22;6315261;22;20323;-79
2022/03/24 04:14:52;;;;;;;;;;;;;;;17.79;47.92;103051.09;6287938;22;19990;-79
2022/03/24 04:17:18;;;;;;;;;;;;;;;17.79;47.87;103052.00;6313386;22;19911;-80
2022/03/24 04:19:44;;;;;;;;;;;;;;;17.78;47.83;103049.34;6340532;22;20075;-79
2022/03/24 04:22:09;;;;;;;;;;;;;;;17.77;47.81;103052.78;6340422;22;19914;-79
2022/03/24 04:24:34;;;;;;;;;;;;;;;17.75;47.93;103047.53;6312599;22;19918;-79
2022/03/24 04:27:00;;;;;;;;;;;;;;;17.77;47.66;103043.25;6340791;22;19913;-80
2022/03/24 04:29:25;;;;;;;;;;;;;;;17.77;47.92;103048.47;6312778;22;20349;-79
2022/03/24 04:31:51;;;;;;;;;;;;;;;17.76;47.88;103044.09;6286905;22;20318;-79
2022/03/24 04:34:16;;;;;;;;;;;;;;;17.76;47.62;103046.69;6312529;22;19939;-80
2022/03/24 04:36:42;;;;;;;;;;;;;;;17.77;47.60;103052.78;6314569;22;19918;-80
2022/03/24 04:39:07;;;;;;;;;;;;;;;17.76;47.81;103046.69;6341930;22;19907;-79
2022/03/24 04:41:32;;;;;;;;;;;;;;;17.74;47.64;103047.50;6287150;22;19981;-79
2022/03/24 04:43:58;;;;;;;;;;;;;;;17.73;47.68;103049.22;6340623;22;20267;-79
2022/03/24 04:46:23;;;;;;;;;;;;;;;17.75;47.71;103054.50;6340533;22;19959;-79
2022/03/24 04:48:49;;;;;;;;;;;;;;;17.74;47.87;103050.97;6313122;22;19945;-79
2022/03/24 04:51:16;;;;;;;;;;;;;;;17.73;47.83;103048.34;6340495;22;19911;-79
2022/03/24 04:53:42;;;;;;;;;;;;;;;17.73;47.59;103046.63;6340494;22;19910;-79
2022/03/24 04:56:08;;;;;;;;;;;;;;;17.72;47.70;103051.78;6340187;22;20342;-79
2022/03/24 04:58:35;;;;;;;;;;;;;;;17.73;47.65;103056.16;6312800;22;20334;-79
2022/03/24 05:01:00;;;;;;;;;;;;;;;17.73;47.61;103051.84;6339976;22;19934;-79
2022/03/24 05:03:25;;;;;;;;;;;;;;;17.73;47.61;103050.97;6312833;22;20323;-79
2022/03/24 05:05:51;;;;;;;;;;;;;;;17.72;47.70;103057.88;6312818;22;19915;-80
2022/03/24 05:08:17;;;;;;;;;;;;;;;17.72;47.76;103059.59;6286743;22;19991;-79
2022/03/24 05:10:42;;;;;;;;;;;;;;;17.71;47.46;103058.72;6340353;22;20338;-79
2022/03/24 05:13:07;;;;;;;;;;;;;;;17.71;47.72;103053.50;6312347;22;20319;-79
2022/03/24 05:15:32;;;;;;;;;;;;;;;17.71;47.71;103058.72;6340612;22;19917;-80
2022/03/24 05:17:58;;;;;;;;;;;;;;;17.71;47.39;103055.25;6312587;22;19994;-80
2022/03/24 05:20:23;;;;;;;;;;;;;;;17.71;47.52;103053.50;6339995;22;19942;-79
2022/03/24 05:22:48;;;;;;;;;;;;;;;17.70;47.48;103056.94;6312348;22;20319;-79
2022/03/24 05:25:14;;;;;;;;;;;;;;;17.70;47.66;103056.94;6340792;22;19919;-79
2022/03/24 05:27:39;;;;;;;;;;;;;;;17.70;47.68;103054.34;6341777;22;20265;-80
2022/03/24 05:30:05;;;;;;;;;;;;;;;17.69;47.64;103060.41;6314318;22;19911;-79
2022/03/24 05:32:30;;;;;;;;;;;;;;;17.69;47.59;103058.69;6342017;22;20234;-79
2022/03/24 05:34:56;;;;;;;;;;;;;;;17.70;47.47;103054.34;6341944;22;19910;-79
2022/03/24 05:37:21;;;;;;;;;;;;;;;17.69;47.41;103061.28;6314584;22;20321;-79
2022/03/24 05:39:46;;;;;;;;;;;;;;;17.70;47.58;103062.16;6341807;22;19907;-78
2022/03/24 05:42:11;;;;;;;;;;;;;;;17.71;47.42;103063.06;6314272;22;20319;-80
2022/03/24 05:44:37;;;;;;;;;;;;;;;17.73;47.57;103066.59;6314215;22;19919;-79
2022/03/24 05:47:02;;;;;;;;;;;;;;;17.72;47.50;103065.69;6288325;22;19942;-79
2022/03/24 05:49:28;;;;;;;;;;;;;;;17.73;47.24;103059.66;6314058;22;19978;-80
2022/03/24 05:51:53;;;;;;;;;;;;;;;17.74;47.17;103068.34;6342154;22;19907;-79
2022/03/24 05:54:19;;;;;;;;;;;;;;;17.75;47.35;103070.13;6313868;22;20351;-81
2022/03/24 05:56:45;;;;;;;;;;;;;;;17.77;47.03;103069.31;6342206;22;19917;-79
2022/03/24 05:59:10;;;;;;;;;;;;;;;17.79;47.24;103069.31;6342055;22;19945;-80
2022/03/24 06:01:36;;;;;;;;;;;;;;;17.80;47.16;103073.69;6342197;22;19911;-79
2022/03/24 06:04:02;;;;;;;;;;;;;;;17.82;47.01;103069.44;6289090;22;20342;-82
2022/03/24 06:06:27;;;;;;;;;;;;;;;17.83;46.86;103063.38;6315372;22;19914;-83
2022/03/24 06:08:53;;;;;;;;;;;;;;;17.95;47.44;103070.63;6342789;22;19973;-86
2022/03/24 06:11:19;;;;;;;;;;;;;;;18.14;47.09;103069.31;6342218;22;20009;-79
2022/03/24 06:13:45;;;;;;;;;;;;;;;18.21;46.99;103066.91;6314382;22;20008;-79
2022/03/24 06:16:13;;;;;;;;;;;;;;;18.24;46.96;103071.31;6313832;22;20231;-78
2022/03/24 06:18:39;;;;;;;;;;;;;;;18.28;46.55;103066.19;6313759;22;20281;-80
2022/03/24 06:21:04;;;;;;;;;;;;;;;18.31;46.84;103065.38;6314093;22;19918;-79
2022/03/24 06:23:30;;;;;;;;;;;;;;;18.35;46.85;103076.78;6341085;22;20242;-76
2022/03/24 06:25:55;;;;;;;;;;;;;;;18.37;46.83;103068.13;6341706;22;20311;-77
2022/03/24 06:28:20;;;;;;;;;;;;;;;18.39;46.74;103071.66;6287579;22;19990;-78
2022/03/24 06:30:46;;;;;;;;;;;;;;;18.42;46.72;103070.84;6287900;22;20380;-80
2022/03/24 06:33:11;;;;;;;;;;;;;;;18.46;46.66;103077.91;6313359;22;19911;-77
2022/03/24 06:35:36;;;;;;;;;;;;;;;18.48;46.40;103076.19;6313274;22;19917;-77
2022/03/24 06:38:02;;;;;;;;;;;;;;;18.50;46.73;103079.72;6340889;22;19921;-78
2022/03/24 06:40:28;;;;;;;;;;;;;;;18.56;46.26;103085.09;6287668;22;19918;-77
2022/03/24 06:42:54;;;;;;;;;;;;;;;18.65;46.02;103080.06;6287482;22;19956;-79
2022/03/24 06:45:19;;;;;;;;;;;;;;;18.79;45.72;103077.81;6314124;22;19910;-78
2022/03/24 06:47:45;;;;;;;;;;;;;;;18.99;45.20;103075.59;6342544;22;20216;-77
2022/03/24 06:50:12;;;;;;;;;;;;;;;19.26;44.60;103074.38;6343735;22;20043;-77
2022/03/24 06:52:37;;;;;;;;;;;;;;;19.66;43.71;103080.31;6313610;22;20032;-77
2022/03/24 06:55:03;;;;;;;;;;;;;;;20.45;41.90;103083.34;6341033;22;19910;-74
2022/03/24 06:57:29;;;;;;;;;;;;;;;21.65;39.03;103076.91;6341091;22;19907;-77
2022/03/24 06:59:54;;;;;;;;;;;;;;;22.32;37.41;103071.34;6313172;22;19911;-75
2022/03/24 07:02:19;;;;;;;;;;;;;;;22.26;37.17;103068.66;6287215;22;19972;-74
2022/03/24 07:04:44;;;;;;;;;;;;;;;21.42;39.07;103065.34;6313031;22;19910;-75
2022/03/24 07:07:09;;;;;;;;;;;;;;;21.24;39.65;103073.88;6313113;22;19910;-76
2022/03/24 07:09:37;;;;;;;;;;;;;;;21.82;38.36;103070.94;6340704;22;19907;-76
2022/03/24 07:12:03;;;;;;;;;;;;;;;22.79;36.34;103070.66;6287829;22;19925;-77
2022/03/24 07:14:28;;;;;;;;;;;;;;;23.24;35.21;103077.84;6313220;22;19911;-76
2022/03/24 07:16:54;;;;;;;;;;;;;;;23.09;35.35;103079.56;6287575;22;19915;-76
2022/03/24 07:19:19;;;;;;;;;;;;;;;23.45;35.08;103074.38;6340825;22;19907;-76
2022/03/24 07:21:45;;;;;;;;;;;;;;;23.93;33.63;103081.44;6312895;22;19994;-76
2022/03/24 07:24:10;;;;;;;;;;;;;;;23.77;33.96;103084.94;6312647;22;20208;-76
2022/03/24 07:26:36;;;;;;;;;;;;;;;23.89;33.81;103084.94;6313144;22;19972;-76
2022/03/24 07:29:01;;;;;;;;;;;;;;;24.20;33.13;103083.13;6313041;22;20323;-76
2022/03/24 07:31:27;;;;;;;;;;;;;;;24.05;33.47;103079.66;6340326;22;19913;-76
2022/03/24 07:33:53;;;;;;;;;;;;;;;23.98;33.65;103079.66;6312829;22;19929;-76
2022/03/24 07:36:22;;;;;;;;;;;;;;;24.06;33.52;103079.63;6340495;22;19934;-76
2022/03/24 07:38:49;;;;;;;;;;;;;;;24.66;32.32;103081.28;6340287;22;19907;-77
2022/03/24 07:41:14;;;;;;;;;;;;;;;25.11;31.43;103074.91;6340444;22;19934;-77
2022/03/24 07:43:40;;;;;;;;;;;;;;;25.03;31.40;103074.09;6287098;22;20319;-76
2022/03/24 07:46:05;;;;;;;;;;;;;;;25.18;31.12;103081.03;6340260;22;20323;-76
2022/03/24 07:48:31;;;;;;;;;;;;;;;25.09;31.26;103084.59;6340332;22;20216;-76
2022/03/24 07:50:57;;;;;;;;;;;;;;;25.17;31.25;103080.16;6312694;22;19917;-76
2022/03/24 07:53:28;;;;;;;;;;;;;;;23.83;33.40;103086.69;6340142;22;20316;-76
2022/03/24 07:55:55;;;;;;;;;;;;;;;21.10;39.27;103098.16;6312439;22;19942;-76
2022/03/24 07:58:21;;;;;;;;;;;;;;;19.93;42.14;103099.09;6340439;22;19911;-76
2022/03/24 08:00:46;;;;;;;;;;;;;;;19.75;42.94;103105.75;6312674;22;19917;-76
2022/03/24 08:03:16;;;;;;;;;;;;;;;21.26;39.38;103104.44;6340115;22;19911;-76
2022/03/24 08:05:41;;;;;;;;;;;;;;;21.52;38.49;103099.50;6340002;22;19913;-76
2022/03/24 08:08:09;;;;;;;;;;;;;;;21.56;38.77;103106.53;6287068;22;19915;-76
2022/03/24 08:10:34;;;;;;;;;;;;;;;21.56;38.57;103101.28;6340356;22;19989;-76
2022/03/24 08:13:00;;;;;;;;;;;;;;;21.36;39.21;103111.53;6312400;22;19911;-76
2022/03/24 08:15:25;;;;;;;;;;;;;;;21.24;39.37;103098.31;6312362;22;20277;-76
2022/03/24 08:17:50;;;;;;;;;;;;;;;21.01;40.07;103102.38;6340386;22;19933;-77
2022/03/24 08:20:15;;;;;;;;;;;;;;;21.02;39.94;103097.19;6340343;22;19910;-76
2022/03/24 08:22:41;;;;;;;;;;;;;;;20.83;40.57;103105.66;6340078;22;19911;-78
2022/03/24 08:25:08;;;;;;;;;;;;;;;20.57;41.20;103113.13;6340227;22;19919;-79
2022/03/24 08:27:34;;;;;;;;;;;;;;;20.39;41.63;103117.25;6312694;22;20242;-78
2022/03/24 08:30:00;;;;;;;;;;;;;;;20.31;42.10;103113.63;6312521;22;19942;-77
2022/03/24 08:32:25;;;;;;;;;;;;;;;20.13;45.45;103114.22;6340198;22;20247;-76
2022/03/24 08:34:50;;;;;;;;;;;;;;;20.03;48.77;103128.88;6312261;22;19911;-75
2022/03/24 08:37:15;;;;;;;;;;;;;;;19.87;49.00;103119.91;6312314;22;19910;-78
2022/03/24 08:39:40;;;;;;;;;;;;;;;19.76;52.99;103136.25;6312269;22;19911;-77
2022/03/24 08:42:06;;;;;;;;;;;;;;;19.46;56.02;103121.72;6340323;22;19989;-84
2022/03/24 08:44:31;;;;;;;;;;;;;;;19.42;54.83;103132.97;6340680;22;19914;-88
2022/03/24 08:46:56;;;;;;;;;;;;;;;19.37;56.08;103138.09;6313293;22;20295;-88
2022/03/24 08:49:22;;;;;;;;;;;;;;;19.30;53.22;103125.78;6340644;22;20343;-87
2022/03/24 08:51:47;;;;;;;;;;;;;;;19.28;52.89;103135.31;6312707;22;19914;-88
2022/03/24 08:54:12;;;;;;;;;;;;;;;19.20;51.95;103135.16;6340642;22;19981;-87
2022/03/24 08:56:37;;;;;;;;;;;;;;;19.10;53.26;103139.31;6287356;22;20014;-87
2022/03/24 08:59:04;;;;;;;;;;;;;;;19.12;50.89;103136.75;6340726;22;19910;-87
2022/03/24 09:01:30;;;;;;;;;;;;;;;19.13;49.90;103135.88;6340696;22;19914;-88
2022/03/24 09:03:55;;;;;;;;;;;;;;;19.10;51.49;103141.94;6312792;22;19915;-87
2022/03/24 09:06:21;;;;;;;;;;;;;;;19.08;51.61;103147.97;6340133;22;19921;-87
2022/03/24 09:08:47;;;;;;;;;;;;;;;18.97;55.86;103141.66;6340518;22;19906;-88
2022/03/24 09:11:12;;;;;;;;;;;;;;;18.95;51.48;103146.81;6340327;22;19913;-88
2022/03/24 09:13:37;;;;;;;;;;;;;;;18.91;54.82;103147.59;6313037;22;19910;-88
2022/03/24 09:16:03;;;;;;;;;;;;;;;18.90;55.74;103153.66;6340835;22;20338;-88
2022/03/24 09:18:29;;;;;;;;;;;;;;;18.83;54.99;103151.78;6340720;22;20323;-88
2022/03/24 09:20:54;;;;;;;;;;;;;;;18.82;53.61;103152.63;6340766;22;19915;-87
2022/03/24 09:23:19;;;;;;;;;;;;;;;18.83;52.96;103151.78;6287430;22;20319;-87
2022/03/24 09:25:45;;;;;;;;;;;;;;;18.81;52.62;103154.34;6313248;22;19919;-88
2022/03/24 09:28:10;;;;;;;;;;;;;;;18.85;51.92;103152.69;6313061;22;19933;-88
2022/03/24 09:30:36;;;;;;;;;;;;;;;18.80;54.44;103152.59;6340347;22;19954;-88
2022/03/24 09:33:01;;;;;;;;;;;;;;;18.74;53.05;103157.63;6313011;22;20242;-88
2022/03/24 09:35:26;;;;;;;;;;;;;;;18.75;52.39;103158.50;6312774;22;19911;-87
2022/03/24 09:37:52;;;;;;;;;;;;;;;18.71;53.62;103160.19;6287465;22;19925;-87
2022/03/24 09:40:17;;;;;;;;;;;;;;;18.71;50.74;103155.84;6286699;22;19963;-88
2022/03/24 09:42:42;;;;;;;;;;;;;;;18.72;53.51;103151.50;6340974;22;19945;-88
2022/03/24 09:45:09;;;;;;;;;;;;;;;18.70;51.49;103151.47;6340812;22;20001;-87
2022/03/24 09:47:35;;;;;;;;;;;;;;;18.68;51.25;103155.78;6341791;22;19965;-88
2022/03/24 09:50:00;;;;;;;;;;;;;;;18.68;50.91;103147.97;6289328;22;19911;-88
2022/03/24 09:52:26;;;;;;;;;;;;;;;18.66;51.58;103149.66;6289711;22;19910;-88
2022/03/24 09:54:52;;;;;;;;;;;;;;;18.66;50.48;103154.88;6342294;22;19906;-86
2022/03/24 09:57:17;;;;;;;;;;;;;;;18.64;50.10;103143.50;6341371;22;19906;-88
2022/03/24 09:59:43;;;;;;;;;;;;;;;18.65;52.42;103142.66;6287064;22;19918;-88
2022/03/24 10:02:09;;;;;;;;;;;;;;;18.63;51.43;103144.34;6340020;22;19957;-77
2022/03/24 10:04:48;;;;;;;;;;;;;;;18.61;50.90;103140.81;6311635;22;19947;-78
2022/03/24 10:07:15;;;;;;;;;;;;;;;18.60;50.06;103149.50;6339456;22;19914;-77
2022/03/24 10:09:42;;;;;;;;;;;;;;;18.60;50.92;103144.28;6312002;22;20319;-88
2022/03/24 10:12:08;;;;;;;;;;;;;;;18.56;49.39;103145.06;6313022;22;20210;-78
2022/03/24 10:14:34;;;;;;;;;;;;;;;18.57;48.86;103140.72;6314291;22;19937;-89
2022/03/24 10:17:06;;;;;;;;;;;;;;;18.58;49.28;103145.97;6341974;22;19906;-76
2022/03/24 10:19:32;;;;;;;;;;;;;;;18.60;49.75;103149.50;6313445;22;19934;-77
2022/03/24 10:21:57;;;;;;;;;;;;;;;18.60;49.70;103140.81;6313301;22;19918;-78
2022/03/24 10:24:23;;;;;;;;;;;;;;;18.53;52.80;103139.78;6341099;22;19915;-78
2022/03/24 10:26:49;;;;;;;;;;;;;;;18.53;50.20;103141.50;6287746;22;19942;-78
2022/03/24 10:29:16;;;;;;;;;;;;;;;18.52;48.83;103138.00;6313239;22;19937;-78
2022/03/24 10:31:43;;;;;;;;;;;;;;;18.50;51.97;103140.56;6340917;22;19969;-78
2022/03/24 10:34:10;;;;;;;;;;;;;;;18.49;50.62;103137.94;6313251;22;20327;-78
2022/03/24 10:36:36;;;;;;;;;;;;;;;18.50;50.67;103139.69;6341150;22;19959;-78
2022/03/24 10:39:04;;;;;;;;;;;;;;;18.49;50.61;103136.22;6313394;22;19956;-79
2022/03/24 10:41:31;;;;;;;;;;;;;;;18.51;50.73;103144.09;6313475;22;19910;-78
2022/03/24 10:43:58;;;;;;;;;;;;;;;18.51;50.29;103138.88;6313302;22;19949;-78
2022/03/24 10:46:27;;;;;;;;;;;;;;;18.47;49.58;103140.50;6313937;22;19911;-78
2022/03/24 10:48:53;;;;;;;;;;;;;;;18.48;48.22;103136.16;6313732;22;19911;-78
2022/03/24 10:51:29;;;;;;;;;;;;;;;18.49;50.28;103143.16;6313356;22;19989;-77
2022/03/24 10:54:03;;;;;;;;;;;;;;;18.49;49.49;103149.25;6313333;22;19910;-78
2022/03/24 10:56:36;;;;;;;;;;;;;;;18.48;46.33;103138.78;6313155;22;19910;-77
2022/03/24 10:59:03;;;;;;;;;;;;;;;18.46;48.59;103137.84;6312922;22;19942;-77
2022/03/24 11:01:29;;;;;;;;;;;;;;;18.46;49.38;103140.47;6341398;22;19913;-77
2022/03/24 11:03:55;;;;;;;;;;;;;;;18.49;49.35;103136.22;6314262;22;19979;-78
2022/03/24 11:06:22;;;;;;;;;;;;;;;18.52;49.72;103140.63;6342466;22;20306;-77
2022/03/24 11:08:52;;;;;;;;;;;;;;;18.50;49.80;103132.75;6313702;22;19919;-77
2022/03/24 11:11:17;;;;;;;;;;;;;;;18.49;46.06;103135.34;6341808;22;19907;-77
2022/03/24 11:13:52;;;;;;;;;;;;;;;18.48;47.47;103134.44;6313837;22;19917;-77
2022/03/24 11:16:18;;;;;;;;;;;;;;;18.50;48.36;103131.88;6313596;22;20281;-77
2022/03/24 11:18:44;;;;;;;;;;;;;;;18.52;49.85;103131.91;6313837;22;19910;-77
2022/03/24 11:21:22;;;;;;;;;;;;;;;18.53;45.99;103129.34;6313735;22;19906;-78
2022/03/24 11:23:50;;;;;;;;;;;;;;;18.54;48.20;103127.63;6313768;22;19981;-77
2022/03/24 11:26:15;;;;;;;;;;;;;;;18.54;52.60;103125.00;6314022;22;19914;-86
2022/03/24 11:28:41;;;;;;;;;;;;;;;18.54;47.45;103122.41;6316490;22;19920;-85
2022/03/24 11:31:11;;;;;;;;;;;;;;;18.58;47.60;103116.41;6344095;22;19911;-87
2022/03/24 11:33:38;;;;;;;;;;;;;;;18.57;49.31;103112.91;6350474;22;19907;-84
2022/03/24 11:36:05;;;;;;;;;;;;;;;18.56;49.26;103113.75;6355265;22;20449;-88
2022/03/24 11:38:30;;;;;;;;;;;;;;;18.58;46.50;103113.81;6317820;22;20333;-89
2022/03/24 11:41:02;;;;;;;;;;;;;;;18.58;49.23;103108.59;6318392;22;19910;-86
2022/03/24 11:43:28;;;;;;;;;;;;;;;18.59;48.47;103106.00;6347946;22;19938;-87
2022/03/24 11:46:16;;;;;;;;;;;;;;;18.60;48.66;103109.50;6348371;22;19932;-88
2022/03/24 11:48:42;;;;;;;;;;;;;;;18.60;45.31;103104.28;6317860;22;19906;-91
2022/03/24 11:51:20;;;;;;;;;;;;;;;18.61;48.91;103104.31;6318233;22;20394;-89
2022/03/24 11:53:46;;;;;;;;;;;;;;;18.63;47.33;103105.22;6343283;22;19918;-89
2022/03/24 11:56:13;;;;;;;;;;;;;;;18.64;45.87;103103.50;6314858;22;19907;-89
2022/03/24 11:58:44;;;;;;;;;;;;;;;18.67;49.15;103101.84;6314223;22;20235;-89
2022/03/24 12:01:23;;;;;;;;;;;;;;;18.65;48.01;103095.72;6313937;22;19907;-91
2022/03/24 12:03:54;;;;;;;;;;;;;;;18.65;48.64;103098.31;6314174;22;19911;-90
2022/03/24 12:06:39;;;;;;;;;;;;;;;18.67;48.27;103093.16;6314250;22;19917;-89
2022/03/24 12:09:05;;;;;;;;;;;;;;;18.67;46.30;103096.63;6342422;22;19907;-89
2022/03/24 12:11:33;;;;;;;;;;;;;;;18.65;46.22;103093.09;6314281;22;19976;-89
2022/03/24 12:13:58;;;;;;;;;;;;;;;18.66;46.38;103091.38;6317075;22;19907;-89
2022/03/24 12:16:27;;;;;;;;;;;;;;;18.68;46.78;103090.56;6343661;22;20256;-89
2022/03/24 12:18:52;;;;;;;;;;;;;;;18.69;45.72;103092.31;6315083;22;19930;-89
2022/03/24 12:21:22;;;;;;;;;;;;;;;18.71;47.91;103082.81;6319976;22;19907;-90
2022/03/24 12:24:06;;;;;;;;;;;;;;;18.74;45.47;103079.38;6319997;22;19918;-89
2022/03/24 12:26:52;;;;;;;;;;;;;;;18.73;47.59;103082.84;6345455;22;19911;-88
2022/03/24 12:29:21;;;;;;;;;;;;;;;18.75;48.30;103080.25;6295304;22;19928;-91
2022/03/24 12:32:04;;;;;;;;;;;;;;;18.76;49.00;103082.03;6316104;22;19912;-91